Time;durP1;ratioP1;P1;durP2;ratioP2;P2;SDS_P1;SDS_P2;PMS_P1;PMS_P2;Temp;Humidity;BMP_temperature;BMP_pressure;BME280_temperature;BME280_humidity;BME280_pressure;Samples;Min_cycle;Max_cycle;Signal;HPM_P1;HPM_P2
2023/03/12 00:01:06;;;;;;;;;;;;;;;;;;4983854;28;20658;-67
2023/03/12 00:03:31;;;;;;;;;;;;;;;;;;4982290;28;20227;-67
2023/03/12 00:05:59;;;;;;;;;;;;;;;;;;4984436;28;19940;-67
2023/03/12 00:08:24;;;;;;;;;;;;;;;;;;4982992;28;20292;-67
2023/03/12 00:10:52;;;;;;;;;;;;;;;;;;4982611;28;19929;-67
2023/03/12 00:13:17;;;;;;;;;;;;;;;;;;4986793;28;20086;-67
2023/03/12 00:15:45;;;;;;;;;;;;;;;;;;4982536;28;20424;-67
2023/03/12 00:18:11;;;;;;;;;;;;;;;;;;4981497;28;20121;-67
2023/03/12 00:20:36;;;;;;;;;;;;;;;;;;4969737;28;21368;-67
2023/03/12 00:23:01;;;;;;;;;;;;;;;;;;4981071;28;20388;-67
2023/03/12 00:25:29;;;;;;;;;;;;;;;;;;4982471;28;19922;-67
2023/03/12 00:27:54;;;;;;;;;;;;;;;;;;4982009;28;20185;-69
2023/03/12 00:30:27;;;;;;;;;;;;;;;;;;4985476;28;20391;-67
2023/03/12 00:32:54;;;;;;;;;;;;;;;;;;4969148;28;19932;-67
2023/03/12 00:35:23;;;;;;;;;;;;;;;;;;4984474;28;20122;-67
2023/03/12 00:37:48;;;;;;;;;;;;;;;;;;4982215;28;19933;-67
2023/03/12 00:40:16;;;;;;;;;;;;;;;;;;4984364;28;19925;-67
2023/03/12 00:42:41;;;;;;;;;;;;;;;;;;4983307;28;19929;-67
2023/03/12 00:45:06;;;;;;;;;;;;;;;;;;4982735;28;20373;-68
2023/03/12 00:47:31;;;;;;;;;;;;;;;;;;4968958;28;20047;-67
2023/03/12 00:49:57;;;;;;;;;;;;;;;;;;4968022;28;19965;-67
2023/03/12 00:52:22;;;;;;;;;;;;;;;;;;4968940;28;20055;-67
2023/03/12 00:54:47;;;;;;;;;;;;;;;;;;4982924;28;19921;-67
2023/03/12 00:57:15;;;;;;;;;;;;;;;;;;4968008;28;19926;-67
2023/03/12 00:59:42;;;;;;;;;;;;;;;;;;4982979;28;19924;-67
2023/03/12 01:02:13;;;;;;;;;;;;;;;;;;4980916;28;20037;-67
2023/03/12 01:04:38;;;;;;;;;;;;;;;;;;4982796;28;20016;-67
2023/03/12 01:07:04;;;;;;;;;;;;;;;;;;4982663;28;19917;-67
2023/03/12 01:09:34;;;;;;;;;;;;;;;;;;4968553;28;19918;-67
2023/03/12 01:11:59;;;;;;;;;;;;;;;;;;4987302;28;20027;-66
2023/03/12 01:14:28;;;;;;;;;;;;;;;;;;4975274;28;19928;-66
2023/03/12 01:16:56;;;;;;;;;;;;;;;;;;4982187;28;19922;-66
2023/03/12 01:19:21;;;;;;;;;;;;;;;;;;4983870;28;19928;-67
2023/03/12 01:21:47;;;;;;;;;;;;;;;;;;4982993;28;19990;-66
2023/03/12 01:24:17;;;;;;;;;;;;;;;;;;4968882;28;19918;-66
2023/03/12 01:26:42;;;;;;;;;;;;;;;;;;4980511;28;20662;-66
2023/03/12 01:29:07;;;;;;;;;;;;;;;;;;4983447;28;19976;-66
2023/03/12 01:31:35;;;;;;;;;;;;;;;;;;4996062;28;19941;-65
2023/03/12 01:34:00;;;;;;;;;;;;;;;;;;4983416;28;20763;-65
2023/03/12 01:36:25;;;;;;;;;;;;;;;;;;4968549;28;20552;-65
2023/03/12 01:38:54;;;;;;;;;;;;;;;;;;4969354;28;20337;-65
2023/03/12 01:41:19;;;;;;;;;;;;;;;;;;4982876;28;19953;-65
2023/03/12 01:43:46;;;;;;;;;;;;;;;;;;4983708;28;20009;-65
2023/03/12 01:46:12;;;;;;;;;;;;;;;;;;4981137;28;19917;-65
2023/03/12 01:48:37;;;;;;;;;;;;;;;;;;4980639;28;19922;-65
2023/03/12 01:51:03;;;;;;;;;;;;;;;;;;4984714;28;19963;-65
2023/03/12 01:53:28;;;;;;;;;;;;;;;;;;4983742;28;19961;-65
2023/03/12 01:55:57;;;;;;;;;;;;;;;;;;4980438;28;20376;-65
2023/03/12 01:58:25;;;;;;;;;;;;;;;;;;4980791;28;21521;-64
2023/03/12 02:00:56;;;;;;;;;;;;;;;;;;4977038;28;20281;-65
2023/03/12 02:03:21;;;;;;;;;;;;;;;;;;4978733;28;20065;-65
2023/03/12 02:05:49;;;;;;;;;;;;;;;;;;4967199;28;20515;-64
2023/03/12 02:08:15;;;;;;;;;;;;;;;;;;4962209;28;20265;-65
2023/03/12 02:10:42;;;;;;;;;;;;;;;;;;4983289;28;19948;-64
2023/03/12 02:13:07;;;;;;;;;;;;;;;;;;4987299;28;19931;-65
2023/03/12 02:15:33;;;;;;;;;;;;;;;;;;4986094;28;19921;-64
2023/03/12 02:17:58;;;;;;;;;;;;;;;;;;4973068;28;19925;-66
2023/03/12 02:20:23;;;;;;;;;;;;;;;;;;4988667;28;19922;-64
2023/03/12 02:22:51;;;;;;;;;;;;;;;;;;4983687;28;19983;-64
2023/03/12 02:25:19;;;;;;;;;;;;;;;;;;4969319;28;19971;-65
2023/03/12 02:27:44;;;;;;;;;;;;;;;;;;4986504;28;20037;-63
2023/03/12 02:30:15;;;;;;;;;;;;;;;;;;4988177;28;19921;-64
2023/03/12 02:32:43;;;;;;;;;;;;;;;;;;4985309;28;19987;-65
2023/03/12 02:35:08;;;;;;;;;;;;;;;;;;4999326;28;19922;-65
2023/03/12 02:37:36;;;;;;;;;;;;;;;;;;4983692;28;19932;-65
2023/03/12 02:40:02;;;;;;;;;;;;;;;;;;4990545;28;20589;-65
2023/03/12 02:42:30;;;;;;;;;;;;;;;;;;4988184;28;19921;-65
2023/03/12 02:44:58;;;;;;;;;;;;;;;;;;4986665;28;19933;-65
2023/03/12 02:47:26;;;;;;;;;;;;;;;;;;4986120;28;20024;-65
2023/03/12 02:49:51;;;;;;;;;;;;;;;;;;4983636;28;20836;-66
2023/03/12 02:52:17;;;;;;;;;;;;;;;;;;4984301;28;19933;-66
2023/03/12 02:54:42;;;;;;;;;;;;;;;;;;4988821;28;21575;-64
2023/03/12 02:57:08;;;;;;;;;;;;;;;;;;4983067;28;19926;-64
2023/03/12 02:59:33;;;;;;;;;;;;;;;;;;4985294;28;19922;-65
2023/03/12 03:02:01;;;;;;;;;;;;;;;;;;4984310;28;19928;-64
2023/03/12 03:04:33;;;;;;;;;;;;;;;;;;4985195;28;20273;-64
2023/03/12 03:06:59;;;;;;;;;;;;;;;;;;4988149;28;19944;-63
2023/03/12 03:09:24;;;;;;;;;;;;;;;;;;4972173;28;20121;-65
2023/03/12 03:11:51;;;;;;;;;;;;;;;;;;4985573;28;20035;-66
2023/03/12 03:14:17;;;;;;;;;;;;;;;;;;4969815;28;20508;-65
2023/03/12 03:16:44;;;;;;;;;;;;;;;;;;4974671;28;19922;-65
2023/03/12 03:19:10;;;;;;;;;;;;;;;;;;4971966;28;20281;-65
2023/03/12 03:21:35;;;;;;;;;;;;;;;;;;4969081;28;20372;-65
2023/03/12 03:24:00;;;;;;;;;;;;;;;;;;4982897;28;20003;-66
2023/03/12 03:26:26;;;;;;;;;;;;;;;;;;4968641;28;20391;-65
2023/03/12 03:28:51;;;;;;;;;;;;;;;;;;4982008;28;19924;-65
2023/03/12 03:31:16;;;;;;;;;;;;;;;;;;4983818;28;19921;-65
2023/03/12 03:33:41;;;;;;;;;;;;;;;;;;4983432;28;19968;-65
2023/03/12 03:36:09;;;;;;;;;;;;;;;;;;4968494;28;19921;-65
2023/03/12 03:38:48;;;;;;;;;;;;;;;;;;4976742;28;19922;-65
2023/03/12 03:41:13;;;;;;;;;;;;;;;;;;4929562;28;20479;-65
2023/03/12 03:46:25;;;;;;;;;;;;;;;;;;4942576;28;19922;-64
2023/03/12 03:48:53;;;;;;;;;;;;;;;;;;4939416;28;19918;-65
2023/03/12 03:51:19;;;;;;;;;;;;;;;;;;4941423;28;19918;-64
2023/03/12 03:53:46;;;;;;;;;;;;;;;;;;4947993;28;19957;-65
2023/03/12 03:56:12;;;;;;;;;;;;;;;;;;4933955;28;20037;-66
2023/03/12 03:58:39;;;;;;;;;;;;;;;;;;4944304;28;19954;-65
2023/03/12 04:01:05;;;;;;;;;;;;;;;;;;4941936;28;19918;-65
2023/03/12 04:03:30;;;;;;;;;;;;;;;;;;4946985;28;20127;-65
2023/03/12 04:05:58;;;;;;;;;;;;;;;;;;4944192;28;20000;-65
2023/03/12 04:11:42;;;;;;;;;;;;;;;;;;4946624;28;21480;-65
2023/03/12 04:14:08;;;;;;;;;;;;;;;;;;4961964;28;20197;-65
2023/03/12 04:19:52;;;;;;;;;;;;;;;;;;4946087;28;20567;-65
2023/03/12 04:22:20;;;;;;;;;;;;;;;;;;4945403;28;19970;-65
2023/03/12 04:24:45;;;;;;;;;;;;;;;;;;4947924;28;19962;-65
2023/03/12 04:27:10;;;;;;;;;;;;;;;;;;4944593;28;19922;-65
2023/03/12 04:29:38;;;;;;;;;;;;;;;;;;4930990;28;20223;-65
2023/03/12 04:32:03;;;;;;;;;;;;;;;;;;4947137;28;20445;-65
2023/03/12 04:34:30;;;;;;;;;;;;;;;;;;4944556;28;19918;-64
2023/03/12 04:36:56;;;;;;;;;;;;;;;;;;4928903;28;20344;-65
2023/03/12 04:39:24;;;;;;;;;;;;;;;;;;4956533;28;19955;-65
2023/03/12 04:41:49;;;;;;;;;;;;;;;;;;4970335;28;20820;-65
2023/03/12 04:44:17;;;;;;;;;;;;;;;;;;4985115;28;19929;-65
2023/03/12 04:46:45;;;;;;;;;;;;;;;;;;4984959;28;19928;-65
2023/03/12 04:49:10;;;;;;;;;;;;;;;;;;4983418;28;19929;-64
2023/03/12 04:51:35;;;;;;;;;;;;;;;;;;4968760;28;19921;-65
2023/03/12 04:54:01;;;;;;;;;;;;;;;;;;4967582;28;20069;-65
2023/03/12 04:56:26;;;;;;;;;;;;;;;;;;4983817;28;20608;-65
2023/03/12 04:58:54;;;;;;;;;;;;;;;;;;4970637;28;20007;-66
2023/03/12 05:01:22;;;;;;;;;;;;;;;;;;4985066;28;19918;-64
2023/03/12 05:03:48;;;;;;;;;;;;;;;;;;4985239;28;19925;-64
2023/03/12 05:06:13;;;;;;;;;;;;;;;;;;4984262;28;20016;-64
2023/03/12 05:08:38;;;;;;;;;;;;;;;;;;4980606;28;20566;-65
2023/03/12 05:11:03;;;;;;;;;;;;;;;;;;4979271;28;19913;-65
2023/03/12 05:13:29;;;;;;;;;;;;;;;;;;4982186;28;19917;-65
2023/03/12 05:15:57;;;;;;;;;;;;;;;;;;4984314;28;19921;-65
2023/03/12 05:18:22;;;;;;;;;;;;;;;;;;4980439;28;20399;-66
2023/03/12 05:20:48;;;;;;;;;;;;;;;;;;4982210;28;19977;-66
2023/03/12 05:23:13;;;;;;;;;;;;;;;;;;4982325;28;19961;-65
2023/03/12 05:25:38;;;;;;;;;;;;;;;;;;4980238;28;20512;-65
2023/03/12 05:28:06;;;;;;;;;;;;;;;;;;4982555;28;20020;-64
2023/03/12 05:30:31;;;;;;;;;;;;;;;;;;4984352;28;20489;-65
2023/03/12 05:32:57;;;;;;;;;;;;;;;;;;4968476;28;20015;-64
2023/03/12 05:35:22;;;;;;;;;;;;;;;;;;4984675;28;20404;-64
2023/03/12 05:37:47;;;;;;;;;;;;;;;;;;4984401;28;20392;-64
2023/03/12 05:40:13;;;;;;;;;;;;;;;;;;4975219;28;19937;-64
2023/03/12 05:45:57;;;;;;;;;;;;;;;;;;4983165;28;20016;-66
2023/03/12 05:48:23;;;;;;;;;;;;;;;;;;4984009;28;19921;-64
2023/03/12 05:50:48;;;;;;;;;;;;;;;;;;4970422;28;19925;-65
2023/03/12 05:53:18;;;;;;;;;;;;;;;;;;4987566;28;19924;-64
2023/03/12 05:55:44;;;;;;;;;;;;;;;;;;4970085;28;19980;-64
2023/03/12 05:58:11;;;;;;;;;;;;;;;;;;4987540;28;20419;-64
2023/03/12 06:00:40;;;;;;;;;;;;;;;;;;4984526;28;19925;-65
2023/03/12 06:03:08;;;;;;;;;;;;;;;;;;4985216;28;19928;-65
2023/03/12 06:05:33;;;;;;;;;;;;;;;;;;4983158;28;19918;-65
2023/03/12 06:08:01;;;;;;;;;;;;;;;;;;4985989;28;19925;-65
2023/03/12 06:10:26;;;;;;;;;;;;;;;;;;4986275;28;20277;-64
2023/03/12 06:12:52;;;;;;;;;;;;;;;;;;4984509;28;20381;-64
2023/03/12 06:15:20;;;;;;;;;;;;;;;;;;4972470;28;20020;-65
2023/03/12 06:17:45;;;;;;;;;;;;;;;;;;4967774;28;20459;-64
2023/03/12 06:20:12;;;;;;;;;;;;;;;;;;4984782;28;20141;-64
2023/03/12 06:22:38;;;;;;;;;;;;;;;;;;4970623;28;19918;-64
2023/03/12 06:25:06;;;;;;;;;;;;;;;;;;4985941;28;19949;-64
2023/03/12 06:30:50;;;;;;;;;;;;;;;;;;4983998;28;20008;-65
2023/03/12 06:33:18;;;;;;;;;;;;;;;;;;4982659;28;20400;-64
2023/03/12 06:35:46;;;;;;;;;;;;;;;;;;4976345;28;20237;-65
2023/03/12 06:38:12;;;;;;;;;;;;;;;;;;4967083;28;20024;-65
2023/03/12 06:40:37;;;;;;;;;;;;;;;;;;4982584;28;19940;-64
2023/03/12 06:43:03;;;;;;;;;;;;;;;;;;4986751;28;20395;-65
2023/03/12 06:45:28;;;;;;;;;;;;;;;;;;4963933;28;20013;-66
2023/03/12 06:47:56;;;;;;;;;;;;;;;;;;4995923;28;20985;-65
2023/03/12 06:50:24;;;;;;;;;;;;;;;;;;4970444;28;20055;-65
2023/03/12 06:52:49;;;;;;;;;;;;;;;;;;4979950;28;19922;-65
2023/03/12 06:55:17;;;;;;;;;;;;;;;;;;4971431;28;19968;-64
2023/03/12 06:57:48;;;;;;;;;;;;;;;;;;4970661;28;19931;-65
2023/03/12 07:00:13;;;;;;;;;;;;;;;;;;4966295;28;20310;-65
2023/03/12 07:02:41;;;;;;;;;;;;;;;;;;4979976;28;19921;-64
2023/03/12 07:05:09;;;;;;;;;;;;;;;;;;4986181;28;19921;-65
2023/03/12 07:07:37;;;;;;;;;;;;;;;;;;4981577;28;21523;-65
2023/03/12 07:10:03;;;;;;;;;;;;;;;;;;4966527;28;21357;-65
2023/03/12 07:12:37;;;;;;;;;;;;;;;;;;4970379;28;19924;-64
2023/03/12 07:15:03;;;;;;;;;;;;;;;;;;4984279;28;19917;-64
2023/03/12 07:17:31;;;;;;;;;;;;;;;;;;4982405;28;19992;-64
2023/03/12 07:19:58;;;;;;;;;;;;;;;;;;4970912;28;20188;-66
2023/03/12 07:22:23;;;;;;;;;;;;;;;;;;4980386;28;19943;-64
2023/03/12 07:24:50;;;;;;;;;;;;;;;;;;4966048;28;20173;-63
2023/03/12 07:27:15;;;;;;;;;;;;;;;;;;4986758;28;19921;-64
2023/03/12 07:29:43;;;;;;;;;;;;;;;;;;4982001;28;20445;-64
2023/03/12 07:32:08;;;;;;;;;;;;;;;;;;4969939;28;19917;-64
2023/03/12 07:34:33;;;;;;;;;;;;;;;;;;4984766;28;20385;-64
2023/03/12 07:36:59;;;;;;;;;;;;;;;;;;4986091;28;20510;-64
2023/03/12 07:39:26;;;;;;;;;;;;;;;;;;4986567;28;20454;-64
2023/03/12 07:41:52;;;;;;;;;;;;;;;;;;4983146;28;19921;-65
2023/03/12 07:44:17;;;;;;;;;;;;;;;;;;4987594;28;20339;-66
2023/03/12 07:46:45;;;;;;;;;;;;;;;;;;4969201;28;20016;-64
2023/03/12 07:49:10;;;;;;;;;;;;;;;;;;4979411;28;20265;-66
2023/03/12 07:51:35;;;;;;;;;;;;;;;;;;4968741;28;19918;-65
2023/03/12 07:54:01;;;;;;;;;;;;;;;;;;4985462;28;19922;-64
2023/03/12 07:56:26;;;;;;;;;;;;;;;;;;4968410;28;19979;-64
2023/03/12 07:58:56;;;;;;;;;;;;;;;;;;4977971;28;19929;-64
2023/03/12 08:01:30;;;;;;;;;;;;;;;;;;4972356;28;19925;-64
2023/03/12 08:03:56;;;;;;;;;;;;;;;;;;4968186;28;19937;-64
2023/03/12 08:06:21;;;;;;;;;;;;;;;;;;4971445;28;20521;-64
2023/03/12 08:08:46;;;;;;;;;;;;;;;;;;4972991;28;20472;-64
2023/03/12 08:11:14;;;;;;;;;;;;;;;;;;4966125;28;20046;-64
2023/03/12 08:13:42;;;;;;;;;;;;;;;;;;4967404;28;19928;-65
2023/03/12 08:16:08;;;;;;;;;;;;;;;;;;4981164;28;19921;-65
2023/03/12 08:18:33;;;;;;;;;;;;;;;;;;4975662;28;19976;-65
2023/03/12 08:20:58;;;;;;;;;;;;;;;;;;4976032;28;19921;-65
2023/03/12 08:23:26;;;;;;;;;;;;;;;;;;4960873;28;20542;-66
2023/03/12 08:25:51;;;;;;;;;;;;;;;;;;4980448;28;19917;-66
2023/03/12 08:28:17;;;;;;;;;;;;;;;;;;4973549;28;20484;-68
2023/03/12 08:30:42;;;;;;;;;;;;;;;;;;4981935;28;19918;-68
2023/03/12 08:33:08;;;;;;;;;;;;;;;;;;4980102;28;19929;-69
2023/03/12 08:35:33;;;;;;;;;;;;;;;;;;4983180;28;19926;-68
2023/03/12 08:37:59;;;;;;;;;;;;;;;;;;4981709;28;20001;-69
2023/03/12 08:40:25;;;;;;;;;;;;;;;;;;4967324;28;19929;-70
2023/03/12 08:42:50;;;;;;;;;;;;;;;;;;4980755;28;19932;-70
2023/03/12 08:45:15;;;;;;;;;;;;;;;;;;4978266;28;19957;-68
2023/03/12 08:50:28;;;;;;;;;;;;;;;;;;4981010;28;20128;-68
2023/03/12 08:52:56;;;;;;;;;;;;;;;;;;4980165;28;19992;-69
2023/03/12 08:55:21;;;;;;;;;;;;;;;;;;4979436;28;20328;-69
2023/03/12 08:57:47;;;;;;;;;;;;;;;;;;4966282;28;20359;-69
2023/03/12 09:00:14;;;;;;;;;;;;;;;;;;4980064;28;20084;-68
2023/03/12 09:02:40;;;;;;;;;;;;;;;;;;4979298;28;20629;-69
2023/03/12 09:05:07;;;;;;;;;;;;;;;;;;4982775;28;19921;-69
2023/03/12 09:07:33;;;;;;;;;;;;;;;;;;4982856;28;20473;-70
2023/03/12 09:09:58;;;;;;;;;;;;;;;;;;4982075;28;19918;-71
2023/03/12 09:12:26;;;;;;;;;;;;;;;;;;4979148;28;20441;-71
2023/03/12 09:14:52;;;;;;;;;;;;;;;;;;4986239;28;19921;-70
2023/03/12 09:17:17;;;;;;;;;;;;;;;;;;4965166;28;20490;-69
2023/03/12 09:19:42;;;;;;;;;;;;;;;;;;4982936;28;20262;-69
2023/03/12 09:22:08;;;;;;;;;;;;;;;;;;4985310;28;19925;-69
2023/03/12 09:24:33;;;;;;;;;;;;;;;;;;4984052;28;19928;-68
2023/03/12 09:26:59;;;;;;;;;;;;;;;;;;4984804;28;20103;-68
2023/03/12 09:29:24;;;;;;;;;;;;;;;;;;4986451;28;19922;-68
2023/03/12 09:31:50;;;;;;;;;;;;;;;;;;4984243;28;20020;-68
2023/03/12 09:34:15;;;;;;;;;;;;;;;;;;4984242;28;19924;-68
2023/03/12 09:36:41;;;;;;;;;;;;;;;;;;4986361;28;20222;-68
2023/03/12 09:39:06;;;;;;;;;;;;;;;;;;4985190;28;19918;-70
2023/03/12 09:41:32;;;;;;;;;;;;;;;;;;4986375;28;20043;-67
2023/03/12 09:43:57;;;;;;;;;;;;;;;;;;4987221;28;19953;-67
2023/03/12 09:46:22;;;;;;;;;;;;;;;;;;4983805;28;19928;-68
2023/03/12 09:48:48;;;;;;;;;;;;;;;;;;4987966;28;20012;-67
2023/03/12 09:51:14;;;;;;;;;;;;;;;;;;4978887;28;21005;-67
2023/03/12 09:56:56;;;;;;;;;;;;;;;;;;4981181;28;20171;-66
2023/03/12 09:59:21;;;;;;;;;;;;;;;;;;4982939;28;19921;-66
2023/03/12 10:01:47;;;;;;;;;;;;;;;;;;4985135;28;19963;-66
2023/03/12 10:04:12;;;;;;;;;;;;;;;;;;4986344;28;19925;-67
2023/03/12 10:06:38;;;;;;;;;;;;;;;;;;4989373;28;20019;-67
2023/03/12 10:09:03;;;;;;;;;;;;;;;;;;4974985;28;19921;-67
2023/03/12 10:11:29;;;;;;;;;;;;;;;;;;4986267;28;20567;-66
2023/03/12 10:13:55;;;;;;;;;;;;;;;;;;4987559;28;20021;-65
2023/03/12 10:16:20;;;;;;;;;;;;;;;;;;4984484;28;20153;-66
2023/03/12 10:18:46;;;;;;;;;;;;;;;;;;4985664;28;19990;-67
2023/03/12 10:21:11;;;;;;;;;;;;;;;;;;4984605;28;19917;-66
2023/03/12 10:23:37;;;;;;;;;;;;;;;;;;4971576;28;19921;-65
2023/03/12 10:26:02;;;;;;;;;;;;;;;;;;4986179;28;20411;-66
2023/03/12 10:28:27;;;;;;;;;;;;;;;;;;4986725;28;19976;-65
2023/03/12 10:30:55;;;;;;;;;;;;;;;;;;4985693;28;19917;-66
2023/03/12 10:33:21;;;;;;;;;;;;;;;;;;4984341;28;20027;-65
2023/03/12 10:35:48;;;;;;;;;;;;;;;;;;4972050;28;20362;-67
2023/03/12 10:38:14;;;;;;;;;;;;;;;;;;4983716;28;20518;-66
2023/03/12 10:40:40;;;;;;;;;;;;;;;;;;4985811;28;20020;-66
2023/03/12 10:43:05;;;;;;;;;;;;;;;;;;4971561;28;19944;-66
2023/03/12 10:45:32;;;;;;;;;;;;;;;;;;4988870;28;19924;-66
2023/03/12 10:47:58;;;;;;;;;;;;;;;;;;4965457;28;19918;-65
2023/03/12 10:50:23;;;;;;;;;;;;;;;;;;4989196;28;19979;-64
2023/03/12 10:52:48;;;;;;;;;;;;;;;;;;4986216;28;19917;-64
2023/03/12 10:55:16;;;;;;;;;;;;;;;;;;4985469;28;19921;-65
2023/03/12 10:57:41;;;;;;;;;;;;;;;;;;4972405;28;19926;-66
2023/03/12 11:00:08;;;;;;;;;;;;;;;;;;4962635;28;19918;-65
2023/03/12 11:02:33;;;;;;;;;;;;;;;;;;4982843;28;20340;-65
2023/03/12 11:04:58;;;;;;;;;;;;;;;;;;4961209;28;19917;-65
2023/03/12 11:07:26;;;;;;;;;;;;;;;;;;4984908;28;19979;-66
2023/03/12 11:09:51;;;;;;;;;;;;;;;;;;4983259;28;19926;-66
2023/03/12 11:12:17;;;;;;;;;;;;;;;;;;4984716;28;20360;-66
2023/03/12 11:14:42;;;;;;;;;;;;;;;;;;4986237;28;19950;-66
2023/03/12 11:17:07;;;;;;;;;;;;;;;;;;4987062;28;19921;-64
2023/03/12 11:19:33;;;;;;;;;;;;;;;;;;4983473;28;19957;-66
2023/03/12 11:21:58;;;;;;;;;;;;;;;;;;4984485;28;19936;-65
2023/03/12 11:24:23;;;;;;;;;;;;;;;;;;4965746;28;19925;-66
2023/03/12 11:26:48;;;;;;;;;;;;;;;;;;4981358;28;19967;-66
2023/03/12 11:29:14;;;;;;;;;;;;;;;;;;4974772;28;19921;-66
2023/03/12 11:31:39;;;;;;;;;;;;;;;;;;4980260;28;20080;-66
2023/03/12 11:34:04;;;;;;;;;;;;;;;;;;4960239;28;19929;-65
2023/03/12 11:36:30;;;;;;;;;;;;;;;;;;4975254;28;20334;-67
2023/03/12 11:38:55;;;;;;;;;;;;;;;;;;4965311;28;19943;-66
2023/03/12 11:41:21;;;;;;;;;;;;;;;;;;4981432;28;19972;-66
2023/03/12 11:43:46;;;;;;;;;;;;;;;;;;4983944;28;19925;-67
2023/03/12 11:46:12;;;;;;;;;;;;;;;;;;4984968;28;19917;-66
2023/03/12 11:48:37;;;;;;;;;;;;;;;;;;4981883;28;19921;-66
2023/03/12 11:51:04;;;;;;;;;;;;;;;;;;4967334;28;21697;-65
2023/03/12 11:53:29;;;;;;;;;;;;;;;;;;4980942;28;19928;-66
2023/03/12 11:55:55;;;;;;;;;;;;;;;;;;4980762;28;19933;-66
2023/03/12 11:58:23;;;;;;;;;;;;;;;;;;4985474;28;19925;-66
2023/03/12 12:00:49;;;;;;;;;;;;;;;;;;4963696;28;19972;-65
2023/03/12 12:03:14;;;;;;;;;;;;;;;;;;4961912;28;19921;-65
2023/03/12 12:05:44;;;;;;;;;;;;;;;;;;4978514;28;20532;-65
2023/03/12 12:08:10;;;;;;;;;;;;;;;;;;4978072;28;19921;-65
2023/03/12 12:10:35;;;;;;;;;;;;;;;;;;4955999;28;20705;-64
2023/03/12 12:13:03;;;;;;;;;;;;;;;;;;4973296;28;19928;-64
2023/03/12 12:15:31;;;;;;;;;;;;;;;;;;4952593;28;19924;-65
2023/03/12 12:17:56;;;;;;;;;;;;;;;;;;4981623;28;19940;-64
2023/03/12 12:20:22;;;;;;;;;;;;;;;;;;4957061;28;20717;-64
2023/03/12 12:22:50;;;;;;;;;;;;;;;;;;4976638;28;20515;-65
2023/03/12 12:25:17;;;;;;;;;;;;;;;;;;4979674;28;19928;-64
2023/03/12 12:27:48;;;;;;;;;;;;;;;;;;4976450;28;20884;-65
2023/03/12 12:30:13;;;;;;;;;;;;;;;;;;4964048;28;19967;-64
2023/03/12 12:32:38;;;;;;;;;;;;;;;;;;4963357;28;19929;-65
2023/03/12 12:35:04;;;;;;;;;;;;;;;;;;4979304;28;19932;-65
2023/03/12 12:37:29;;;;;;;;;;;;;;;;;;4985191;28;20054;-65
2023/03/12 12:39:54;;;;;;;;;;;;;;;;;;4985178;28;19930;-64
2023/03/12 12:42:24;;;;;;;;;;;;;;;;;;4983762;28;19921;-65
2023/03/12 12:44:52;;;;;;;;;;;;;;;;;;4960941;28;20475;-64
2023/03/12 12:47:20;;;;;;;;;;;;;;;;;;4976477;28;21934;-64
2023/03/12 12:49:48;;;;;;;;;;;;;;;;;;4983533;28;19921;-63
2023/03/12 12:52:18;;;;;;;;;;;;;;;;;;4978423;28;20204;-63
2023/03/12 12:54:44;;;;;;;;;;;;;;;;;;4979999;28;19943;-64
2023/03/12 12:57:12;;;;;;;;;;;;;;;;;;4974968;28;20424;-64
2023/03/12 12:59:40;;;;;;;;;;;;;;;;;;4965164;28;19928;-64
2023/03/12 13:02:06;;;;;;;;;;;;;;;;;;4977118;28;20092;-64
2023/03/12 13:04:36;;;;;;;;;;;;;;;;;;4979720;28;20451;-64
2023/03/12 13:07:04;;;;;;;;;;;;;;;;;;4978819;28;19925;-64
2023/03/12 13:09:32;;;;;;;;;;;;;;;;;;4963364;28;19957;-64
2023/03/12 13:11:57;;;;;;;;;;;;;;;;;;4962872;28;19922;-63
2023/03/12 13:14:25;;;;;;;;;;;;;;;;;;4980302;28;19924;-63
2023/03/12 13:16:53;;;;;;;;;;;;;;;;;;4982294;28;19947;-64
2023/03/12 13:19:18;;;;;;;;;;;;;;;;;;4979336;28;19990;-63
2023/03/12 13:21:43;;;;;;;;;;;;;;;;;;4969679;28;20814;-63
2023/03/12 13:24:09;;;;;;;;;;;;;;;;;;4964334;28;20020;-63
2023/03/12 13:26:34;;;;;;;;;;;;;;;;;;4964113;28;20260;-65
2023/03/12 13:29:02;;;;;;;;;;;;;;;;;;4977054;28;19921;-64
2023/03/12 13:31:27;;;;;;;;;;;;;;;;;;4978054;28;19975;-63
2023/03/12 13:33:52;;;;;;;;;;;;;;;;;;4976776;28;19932;-64
2023/03/12 13:36:24;;;;;;;;;;;;;;;;;;4980434;28;20264;-64
2023/03/12 13:38:49;;;;;;;;;;;;;;;;;;4977497;28;19925;-64
2023/03/12 13:41:14;;;;;;;;;;;;;;;;;;4971561;28;19965;-63
2023/03/12 13:43:40;;;;;;;;;;;;;;;;;;4976022;28;19929;-64
2023/03/12 13:46:05;;;;;;;;;;;;;;;;;;4976034;28;20084;-65
2023/03/12 13:48:35;;;;;;;;;;;;;;;;;;4963324;28;20417;-64
2023/03/12 13:51:03;;;;;;;;;;;;;;;;;;4976026;28;20068;-64
2023/03/12 13:53:31;;;;;;;;;;;;;;;;;;4961903;28;20418;-63
2023/03/12 13:55:59;;;;;;;;;;;;;;;;;;4984791;28;21146;-64
2023/03/12 13:58:25;;;;;;;;;;;;;;;;;;4967963;28;19973;-65
2023/03/12 14:00:50;;;;;;;;;;;;;;;;;;4980079;28;20780;-65
2023/03/12 14:03:15;;;;;;;;;;;;;;;;;;4973623;28;20011;-64
2023/03/12 14:05:41;;;;;;;;;;;;;;;;;;4978730;28;20381;-64
2023/03/12 14:08:09;;;;;;;;;;;;;;;;;;4979389;28;20389;-64
2023/03/12 14:10:37;;;;;;;;;;;;;;;;;;4973459;28;19922;-65
2023/03/12 14:13:02;;;;;;;;;;;;;;;;;;4966092;28;19921;-66
2023/03/12 14:15:30;;;;;;;;;;;;;;;;;;4959545;28;20407;-65
2023/03/12 14:17:59;;;;;;;;;;;;;;;;;;4983190;28;19925;-64
2023/03/12 14:20:24;;;;;;;;;;;;;;;;;;4971052;28;21744;-64
2023/03/12 14:22:55;;;;;;;;;;;;;;;;;;4986603;28;19925;-64
2023/03/12 14:25:20;;;;;;;;;;;;;;;;;;4988221;28;20000;-65
2023/03/12 14:27:46;;;;;;;;;;;;;;;;;;4982472;28;20503;-64
2023/03/12 14:30:14;;;;;;;;;;;;;;;;;;4983840;28;20370;-65
2023/03/12 14:32:39;;;;;;;;;;;;;;;;;;4981603;28;19921;-65
2023/03/12 14:35:07;;;;;;;;;;;;;;;;;;4977699;28;20247;-65
2023/03/12 14:37:33;;;;;;;;;;;;;;;;;;4980421;28;19928;-63
2023/03/12 14:40:01;;;;;;;;;;;;;;;;;;4999013;28;19921;-65
2023/03/12 14:42:29;;;;;;;;;;;;;;;;;;4978438;28;20190;-65
2023/03/12 14:44:54;;;;;;;;;;;;;;;;;;4959882;28;19925;-65
2023/03/12 14:47:22;;;;;;;;;;;;;;;;;;4978933;28;19917;-69
2023/03/12 14:49:48;;;;;;;;;;;;;;;;;;4966957;28;19984;-67
2023/03/12 14:55:48;;;;;;;;;;;;;;;;;;4981510;28;19944;-66
2023/03/12 14:58:16;;;;;;;;;;;;;;;;;;4984546;28;19929;-67
2023/03/12 15:00:42;;;;;;;;;;;;;;;;;;4978352;28;19921;-67
2023/03/12 15:03:07;;;;;;;;;;;;;;;;;;4968192;28;19993;-67
2023/03/12 15:05:33;;;;;;;;;;;;;;;;;;4984389;28;20160;-67
2023/03/12 15:07:58;;;;;;;;;;;;;;;;;;4982410;28;19933;-67
2023/03/12 15:10:24;;;;;;;;;;;;;;;;;;4984805;28;20418;-67
2023/03/12 15:12:49;;;;;;;;;;;;;;;;;;4970553;28;20016;-68
2023/03/12 15:15:14;;;;;;;;;;;;;;;;;;4981342;28;19928;-66
2023/03/12 15:17:40;;;;;;;;;;;;;;;;;;4980583;28;19979;-66
2023/03/12 15:20:08;;;;;;;;;;;;;;;;;;4979415;28;20438;-69
2023/03/12 15:22:33;;;;;;;;;;;;;;;;;;4971152;28;19973;-67
2023/03/12 15:24:58;;;;;;;;;;;;;;;;;;4980962;28;19918;-67
2023/03/12 15:27:24;;;;;;;;;;;;;;;;;;4975780;28;19921;-68
2023/03/12 15:29:49;;;;;;;;;;;;;;;;;;4983498;28;20007;-68
2023/03/12 15:32:15;;;;;;;;;;;;;;;;;;4981112;28;19924;-68
2023/03/12 15:34:40;;;;;;;;;;;;;;;;;;4972232;28;19928;-67
2023/03/12 15:37:05;;;;;;;;;;;;;;;;;;4980799;28;19922;-69
2023/03/12 15:39:30;;;;;;;;;;;;;;;;;;4976743;28;19921;-69
2023/03/12 15:41:56;;;;;;;;;;;;;;;;;;4974685;28;19921;-68
2023/03/12 15:44:21;;;;;;;;;;;;;;;;;;4986132;28;20337;-69
2023/03/12 15:46:46;;;;;;;;;;;;;;;;;;4979413;28;20456;-68
2023/03/12 15:49:12;;;;;;;;;;;;;;;;;;4978814;28;20324;-67
2023/03/12 15:51:39;;;;;;;;;;;;;;;;;;4981276;28;19921;-69
2023/03/12 15:54:04;;;;;;;;;;;;;;;;;;4970265;28;19917;-67
2023/03/12 15:56:30;;;;;;;;;;;;;;;;;;4986313;28;20802;-68
2023/03/12 15:58:55;;;;;;;;;;;;;;;;;;4979260;28;19921;-68
2023/03/12 16:01:26;;;;;;;;;;;;;;;;;;4987220;28;19957;-69
2023/03/12 16:03:54;;;;;;;;;;;;;;;;;;4984329;28;20222;-68
2023/03/12 16:06:22;;;;;;;;;;;;;;;;;;4986669;28;20017;-68
2023/03/12 16:08:47;;;;;;;;;;;;;;;;;;4967528;28;20377;-68
2023/03/12 16:11:12;;;;;;;;;;;;;;;;;;4984828;28;19922;-69
2023/03/12 16:13:37;;;;;;;;;;;;;;;;;;4965710;28;21483;-68
2023/03/12 16:16:03;;;;;;;;;;;;;;;;;;4979078;28;19972;-68
2023/03/12 16:18:28;;;;;;;;;;;;;;;;;;4982576;28;19922;-68
2023/03/12 16:20:54;;;;;;;;;;;;;;;;;;4981022;28;20347;-69
2023/03/12 16:23:19;;;;;;;;;;;;;;;;;;4984582;28;19925;-67
2023/03/12 16:25:44;;;;;;;;;;;;;;;;;;4982184;28;22109;-67
2023/03/12 16:28:09;;;;;;;;;;;;;;;;;;4980408;28;19948;-68
2023/03/12 16:30:37;;;;;;;;;;;;;;;;;;4978421;28;20273;-67
2023/03/12 16:33:03;;;;;;;;;;;;;;;;;;4958781;28;21404;-69
2023/03/12 16:35:30;;;;;;;;;;;;;;;;;;4974093;28;19925;-68
2023/03/12 16:38:00;;;;;;;;;;;;;;;;;;4968618;28;19971;-68
2023/03/12 16:40:26;;;;;;;;;;;;;;;;;;4964666;28;20418;-69
2023/03/12 16:42:54;;;;;;;;;;;;;;;;;;4968830;28;19924;-68
2023/03/12 16:45:22;;;;;;;;;;;;;;;;;;4982259;28;19940;-68
2023/03/12 16:51:06;;;;;;;;;;;;;;;;;;4979772;28;19990;-68
2023/03/12 16:53:37;;;;;;;;;;;;;;;;;;4967384;28;19922;-68
2023/03/12 16:56:05;;;;;;;;;;;;;;;;;;4963057;28;19925;-68
2023/03/12 16:58:30;;;;;;;;;;;;;;;;;;4986007;28;19925;-68
2023/03/12 17:00:56;;;;;;;;;;;;;;;;;;4981970;28;20174;-66
2023/03/12 17:03:24;;;;;;;;;;;;;;;;;;4978003;28;20369;-67
2023/03/12 17:05:49;;;;;;;;;;;;;;;;;;4957689;28;20028;-67
2023/03/12 17:08:17;;;;;;;;;;;;;;;;;;4969360;28;19918;-67